Avellaneda, Argentina
Current Conditions -  °F | °C
As of 12:00 AM on Wednesday 26 Nov 2014 (Local Time) from SABE Reporting Station
Clear Clear  
Wind Chill: 66°   Ceiling: Unl
Heat Index: 66°   Visibility: 6mi
Dew Point: 50°   Wind: 13mph
Humidity: 56%   Direction: 110°ESE
Pressure: 29.91"   Gusts: NA
Location:  34.57°S, 58.38°W
Report Text: SABE 260300Z 11011KT 060V150 CAVOK 19/10 Q1013
Loading
Personal Weather Stations






























Interactive Weather Map New forecast layout! Learn more

10-Day Weather Forecast

Advertisements
Track Severe Weather on mobile